Airfield :
LOGIN :

Register | Disclaimer

   EN    FR    IT 

 










Legend :    VFR   Marginal VFR   IFR   Intensive IFR   Very Intensive IFR
Visi :
Ceiling :
>= 8 km
>= 3000ft
5 to 8 km
1000 to 3000 ft
1500m to 5 km
500 to 1000 ft
800 to 1500m
200 to 500 ft
< 800m
< 200 ft
Symbols :   Thunderstorms  Fog  Heavy snow  Heavy precipitations  Wind > 20 kt
SIGMETs :     Misc.  Thunderstorms  Icing  Turbulence  Mountain Waves  Volcanic Ashes







- Airport Elevation : 375 ft
- IATA code : MST


EHBK - Maastricht Aachen

CURRENT METAR :
  • 220555Z AUTO 24009KT 210V270 3800 BR BKN001 OVC002 08/08 Q1006 TEMPO 2000 -DZ BECMG BKN003

EXPIRED METARs :
  • 220525Z AUTO 23007KT 210V270 2000 -RA OVC001 07/07 Q1006 TEMPO 1200 DZ
  • 220455Z AUTO 21008KT 1200 R21/P2000N DZ OVC000 06/06 Q1006 REDZ NOSIG
  • 220425Z AUTO 21011KT 2100 DZ OVC000 05/05 Q1006 REDZ
  • 220355Z AUTO 21010KT 2100 DZ OVC000 05/05 Q1006
  • 220325Z AUTO 21010KT 2600 +DZ BKN001 OVC002 05/05 Q1006

TAF TAF EHBK
Valid from the 22 at 06:00 until the 23 at 12:00 UTC


220519Z 2206/2312 20007KT 3000 BR BKN003
TEMPO 2206/2209 1200 -DZ BKN001
PROB30 2206/2208 0600 FG BKN000
BECMG 2208/2210 27010KT 7000 BKN008
BECMG 2210/2212 9999 NSW SCT012 BKN025
PROB30 2220/2303 6000
BECMG 2302/2305 24007KT
BECMG 2309/2312 21013KT
No reported NOTAMs for that airfield.



MET'MAP, your aeronautical weather chart ! - Copyright ORBIFLY December 2007 - Disclaimer

ORBIFLY MET'MAP TEAM :

Programming & Development : Alexandra Zaïnal
Concept & Development : Baudouin d'Aumeries
Co-Development & Prog : Marc-Olivier Méhu
Technical & hardware support : Manuel Goepfert

Contact : metmap@orbifly.com




SOURCES & CREDITS :

   NOAA